Big Bear Station Historical Data
Daily Summary for April 4, 2017 Units:  English    Metric   Both
« Previous Day
Next Day »
Daily Weekly Monthly Yearly Custom
  High: Low: Average:
Temperature: 61.2 °F 28.9 °F 43.6 °F
Dew Point: 33.1 °F 22.8 °F 28.5 °F
Humidity: 91 % 25 % 60 %
Wind Speed: 7.3 mph 0.0 mph 1.8 mph
Wind Gust: -999.0 mph - -
Wind:- - WSW
Pressure: 30.22 in 30.06 in -
Precipitation: 0.00 in    
Historical Graphs
 
 
Tabular Data for April 4, 2017
Time Temperature Dew Point Pressure Wind Wind Speed Wind Gust Humidity Rainfall Rate (Hourly)
00:04 34.7 °F 26.6 °F 30.06 in SSE 2.2 mph -999.0 mph 72 % 0 in
00:19 34.2 °F 26.4 °F 30.06 in South 1.7 mph -999.0 mph 73 % 0 in
00:34 33.6 °F 26.2 °F 30.06 in SSE 1.7 mph -999.0 mph 74 % 0 in
00:50 33.4 °F 26.3 °F 30.06 in Calm   -999.0 mph 75 % 0 in
01:05 32.9 °F 26.2 °F 30.06 in Calm   -999.0 mph 76 % 0 in
01:20 32.7 °F 26.0 °F 30.06 in South 1.7 mph -999.0 mph 76 % 0 in
01:35 32.4 °F 26.0 °F 30.06 in South 1.7 mph -999.0 mph 77 % 0 in
01:50 32.2 °F 26.1 °F 30.06 in South 1.7 mph -999.0 mph 78 % 0 in
02:06 32.0 °F 26.2 °F 30.06 in South 1.7 mph -999.0 mph 79 % 0 in
02:21 31.5 °F 26.0 °F 30.06 in Calm   -999.0 mph 80 % 0 in
02:36 31.5 °F 26.6 °F 30.06 in Calm   -999.0 mph 82 % 0 in
02:51 30.9 °F 26.6 °F 30.06 in Calm   -999.0 mph 84 % 0 in
03:07 30.9 °F 26.9 °F 30.07 in South 1.7 mph -999.0 mph 85 % 0 in
03:22 30.9 °F 27.5 °F 30.07 in SSE 1.7 mph -999.0 mph 87 % 0 in
03:37 30.9 °F 27.5 °F 30.07 in South 2.2 mph -999.0 mph 87 % 0 in
03:52 30.7 °F 27.6 °F 30.07 in Calm   -999.0 mph 88 % 0 in
04:07 30.2 °F 27.1 °F 30.07 in Calm   -999.0 mph 88 % 0 in
04:23 30.0 °F 26.6 °F 30.07 in Calm   -999.0 mph 87 % 0 in
04:38 30.0 °F 26.6 °F 30.07 in Calm   -999.0 mph 87 % 0 in
04:53 29.7 °F 26.0 °F 30.07 in Calm   -999.0 mph 86 % 0 in
05:08 29.8 °F 26.4 °F 30.08 in South 2.2 mph -999.0 mph 87 % 0 in
05:23 29.5 °F 26.4 °F 30.08 in SSE 1.1 mph -999.0 mph 88 % 0 in
05:39 29.3 °F 26.2 °F 30.08 in Calm   -999.0 mph 88 % 0 in
05:54 29.5 °F 26.7 °F 30.09 in South 2.2 mph -999.0 mph 89 % 0 in
06:09 29.5 °F 26.7 °F 30.09 in South 1.7 mph -999.0 mph 89 % 0 in
06:25 28.9 °F 26.1 °F 30.10 in South 1.1 mph -999.0 mph 89 % 0 in
06:40 28.9 °F 26.1 °F 30.10 in South 1.1 mph -999.0 mph 89 % 0 in
06:55 28.9 °F 26.1 °F 30.10 in Calm   -999.0 mph 89 % 0 in
07:10 29.3 °F 26.2 °F 30.10 in Calm   -999.0 mph 88 % 0 in
07:25 29.7 °F 26.6 °F 30.11 in Calm   -999.0 mph 88 % 0 in
07:41 29.8 °F 27.0 °F 30.11 in Calm   -999.0 mph 89 % 0 in
07:56 32.0 °F 28.8 °F 30.12 in Calm   -999.0 mph 88 % 0 in
08:11 31.8 °F 28.9 °F 30.12 in Calm   -999.0 mph 89 % 0 in
08:26 33.4 °F 31.1 °F 30.12 in Calm   -999.0 mph 91 % 0 in
08:41 37.9 °F 32.9 °F 30.13 in Calm   -999.0 mph 82 % 0 in
08:57 39.4 °F 33.1 °F 30.13 in Calm   -999.0 mph 78 % 0 in
09:12 41.4 °F 29.0 °F 30.13 in NW 2.2 mph -999.0 mph 61 % 0 in
09:27 42.3 °F 29.8 °F 30.14 in NNW 2.7 mph -999.0 mph 61 % 0 in
09:42 44.1 °F 29.8 °F 30.13 in NNW 3.7 mph -999.0 mph 57 % 0 in
09:57 45.9 °F 29.3 °F 30.13 in WNW 2.7 mph -999.0 mph 52 % 0 in
10:13 48.0 °F 25.4 °F 30.13 in NNW 3.2 mph -999.0 mph 41 % 0 in
10:28 49.3 °F 28.3 °F 30.13 in WSW 2.7 mph -999.0 mph 44 % 0 in
10:43 51.8 °F 30.6 °F 30.14 in North 3.2 mph -999.0 mph 44 % 0 in
10:59 54.9 °F 29.8 °F 30.14 in NW 3.7 mph -999.0 mph 38 % 0 in
11:14 55.9 °F 30.6 °F 30.14 in North 3.7 mph -999.0 mph 38 % 0 in
11:29 56.1 °F 30.2 °F 30.15 in North 4.2 mph -999.0 mph 37 % 0 in
11:45 55.9 °F 25.7 °F 30.14 in NNW 3.7 mph -999.0 mph 31 % 0 in
12:00 57.7 °F 24.8 °F 30.14 in North 7.3 mph -999.0 mph 28 % 0 in
12:16 57.4 °F 22.8 °F 30.15 in NW 3.2 mph -999.0 mph 26 % 0 in
12:31 59.7 °F 24.7 °F 30.15 in NW 5.8 mph -999.0 mph 26 % 0 in
12:46 59.4 °F 25.4 °F 30.15 in NW 4.7 mph -999.0 mph 27 % 0 in
13:01 58.6 °F 22.9 °F 30.15 in West 2.2 mph -999.0 mph 25 % 0 in
13:16 59.5 °F 31.8 °F 30.14 in North 5.8 mph -999.0 mph 35 % 0 in
13:32 60.6 °F 32.8 °F 30.14 in NW 5.8 mph -999.0 mph 35 % 0 in
13:47 60.3 °F 30.3 °F 30.14 in WSW 5.8 mph -999.0 mph 32 % 0 in
14:02 59.9 °F 30.7 °F 30.14 in South 1.7 mph -999.0 mph 33 % 0 in
14:17 59.4 °F 29.5 °F 30.14 in East 2.2 mph -999.0 mph 32 % 0 in
14:32 59.9 °F 30.7 °F 30.13 in WNW 2.2 mph -999.0 mph 33 % 0 in
14:48 59.4 °F 29.5 °F 30.13 in NW 2.7 mph -999.0 mph 32 % 0 in
15:03 59.7 °F 30.5 °F 30.13 in NNW 4.7 mph -999.0 mph 33 % 0 in
15:18 58.3 °F 27.8 °F 30.13 in SW 2.7 mph -999.0 mph 31 % 0 in
15:33 58.8 °F 28.2 °F 30.13 in SSE 1.1 mph -999.0 mph 31 % 0 in
15:48 59.4 °F 30.3 °F 30.13 in West 2.7 mph -999.0 mph 33 % 0 in
16:04 58.1 °F 29.9 °F 30.13 in NNW 2.2 mph -999.0 mph 34 % 0 in
16:19 59.5 °F 30.4 °F 30.13 in NW 2.7 mph -999.0 mph 33 % 0 in
16:34 58.6 °F 29.6 °F 30.13 in Calm   -999.0 mph 33 % 0 in
16:49 60.3 °F 30.3 °F 30.13 in East 2.2 mph -999.0 mph 32 % 0 in
17:05 61.2 °F 30.3 °F 30.15 in SSW 2.7 mph -999.0 mph 31 % 0 in
17:20 60.4 °F 31.2 °F 30.15 in NNW 2.2 mph -999.0 mph 33 % 0 in
17:35 58.8 °F 30.5 °F 30.14 in South 2.2 mph -999.0 mph 34 % 0 in
17:50 59.2 °F 32.2 °F 30.15 in NW 5.3 mph -999.0 mph 36 % 0 in
18:05 56.7 °F 31.4 °F 30.15 in NW 2.7 mph -999.0 mph 38 % 0 in
18:21 54.1 °F 30.9 °F 30.15 in North 2.2 mph -999.0 mph 41 % 0 in
18:36 52.7 °F 30.2 °F 30.16 in Calm   -999.0 mph 42 % 0 in
18:51 51.6 °F 30.4 °F 30.16 in SSW 1.1 mph -999.0 mph 44 % 0 in
19:06 50.0 °F 30.6 °F 30.16 in Calm   -999.0 mph 47 % 0 in
19:21 48.7 °F 30.4 °F 30.17 in Calm   -999.0 mph 49 % 0 in
19:37 47.3 °F 30.6 °F 30.17 in Calm   -999.0 mph 52 % 0 in
19:52 45.5 °F 30.7 °F 30.18 in Calm   -999.0 mph 56 % 0 in
20:07 44.6 °F 30.7 °F 30.18 in SSE 1.7 mph -999.0 mph 58 % 0 in
20:22 43.7 °F 30.7 °F 30.19 in Calm   -999.0 mph 60 % 0 in
20:37 42.8 °F 31.1 °F 30.19 in Calm   -999.0 mph 63 % 0 in
20:53 41.5 °F 30.2 °F 30.20 in SSW 2.2 mph -999.0 mph 64 % 0 in
21:08 41.2 °F 30.3 °F 30.21 in South 2.2 mph -999.0 mph 65 % 0 in
21:23 40.5 °F 30.0 °F 30.21 in Calm   -999.0 mph 66 % 0 in
21:39 39.9 °F 30.2 °F 30.21 in South 1.7 mph -999.0 mph 68 % 0 in
21:54 39.6 °F 29.9 °F 30.21 in SE 2.2 mph -999.0 mph 68 % 0 in
22:09 39.0 °F 30.0 °F 30.21 in South 2.2 mph -999.0 mph 70 % 0 in
22:25 38.5 °F 29.2 °F 30.21 in Calm   -999.0 mph 69 % 0 in
22:40 38.1 °F 28.8 °F 30.21 in Calm   -999.0 mph 69 % 0 in
22:55 37.6 °F 29.0 °F 30.22 in SSE 1.7 mph -999.0 mph 71 % 0 in
23:10 37.2 °F 29.0 °F 30.22 in SSW 1.7 mph -999.0 mph 72 % 0 in
23:26 36.7 °F 28.9 °F 30.22 in Calm   -999.0 mph 73 % 0 in
23:41 36.5 °F 28.7 °F 30.22 in Calm   -999.0 mph 73 % 0 in
23:56 36.0 °F 27.8 °F 30.22 in South 1.7 mph -999.0 mph 72 % 0 in
Big Bear CA Weather
Compliments of Weather Underground - 1.5 mb